Time;durP1;ratioP1;P1;durP2;ratioP2;P2;SDS_P1;SDS_P2;PMS_P1;PMS_P2;Temp;Humidity;BMP_temperature;BMP_pressure;BME280_temperature;BME280_humidity;BME280_pressure;Samples;Min_cycle;Max_cycle;Signal;HPM_P1;HPM_P2
2023/03/28 00:01:10;;;;;;;10.52;2.20;;;2.20;99.90;;;;;;5055081;28;20040;-39
2023/03/28 00:03:38;;;;;;;11.43;2.17;;;2.20;99.90;;;;;;5053095;28;20067;-36
2023/03/28 00:06:08;;;;;;;10.65;2.20;;;2.10;99.90;;;;;;5045107;28;20509;-39
2023/03/28 00:08:38;;;;;;;17.83;2.85;;;2.10;99.90;;;;;;5056236;28;20049;-39
2023/03/28 00:11:10;;;;;;;11.55;2.05;;;2.10;99.90;;;;;;5055838;28;20068;-48
2023/03/28 00:13:36;;;;;;;9.07;2.35;;;2.00;99.90;;;;;;5044373;28;20045;-36
2023/03/28 00:16:07;;;;;;;13.57;2.25;;;2.00;99.90;;;;;;5045252;28;20068;-39
2023/03/28 00:18:36;;;;;;;15.95;3.28;;;2.00;99.90;;;;;;5056188;28;21058;-41
2023/03/28 00:21:03;;;;;;;10.07;2.28;;;1.90;99.90;;;;;;5055972;28;20052;-40
2023/03/28 00:23:29;;;;;;;12.50;2.80;;;1.90;99.90;;;;;;5049869;28;20048;-41
2023/03/28 00:25:56;;;;;;;10.75;2.00;;;1.80;99.90;;;;;;5049387;28;20106;-42
2023/03/28 00:28:21;;;;;;;12.40;2.38;;;1.80;99.90;;;;;;5056395;28;20079;-38
2023/03/28 00:30:47;;;;;;;10.20;2.72;;;1.80;99.90;;;;;;5055991;28;20151;-42
2023/03/28 00:33:12;;;;;;;13.48;2.30;;;1.90;99.90;;;;;;5057455;28;20128;-40
2023/03/28 00:35:38;;;;;;;12.65;2.15;;;1.90;99.90;;;;;;5056482;28;20124;-45
2023/03/28 00:38:04;;;;;;;9.85;2.17;;;2.00;99.90;;;;;;5055813;28;20051;-43
2023/03/28 00:40:36;;;;;;;12.40;1.75;;;2.10;99.90;;;;;;5043211;28;20547;-42
2023/03/28 00:43:02;;;;;;;9.57;1.85;;;2.10;99.90;;;;;;5048911;28;20041;-41
2023/03/28 00:45:28;;;;;;;16.80;3.10;;;2.00;99.90;;;;;;5045891;28;20466;-43
2023/03/28 00:48:00;;;;;;;10.40;2.33;;;2.00;99.90;;;;;;5055921;28;20154;-42
2023/03/28 00:50:48;;;;;;;11.20;2.08;;;1.90;99.90;;;;;;5055168;28;20127;-44
2023/03/28 00:53:22;;;;;;;9.90;2.28;;;1.90;99.90;;;;;;5054877;28;20125;-45
2023/03/28 00:55:56;;;;;;;16.67;2.72;;;1.80;99.90;;;;;;5041809;28;20483;-40
2023/03/28 00:58:25;;;;;;;19.73;3.90;;;1.80;99.90;;;;;;5055869;28;20052;-36
2023/03/28 01:00:53;;;;;;;17.45;2.90;;;1.70;99.90;;;;;;5055320;28;20093;-42
2023/03/28 01:03:24;;;;;;;13.80;2.70;;;1.70;99.90;;;;;;5055164;28;20441;-40
2023/03/28 01:05:50;;;;;;;18.85;2.97;;;1.70;99.90;;;;;;5047814;28;20196;-36
2023/03/28 01:08:18;;;;;;;12.73;2.40;;;1.70;99.90;;;;;;5048349;28;20059;-42
2023/03/28 01:10:44;;;;;;;9.75;2.60;;;1.60;99.90;;;;;;5043396;28;20537;-46
2023/03/28 01:13:12;;;;;;;13.77;4.38;;;1.70;99.90;;;;;;5055475;28;20132;-45
2023/03/28 01:15:39;;;;;;;12.52;2.22;;;1.70;99.90;;;;;;5054848;28;20041;-38
2023/03/28 01:18:09;;;;;;;10.57;2.53;;;1.70;99.90;;;;;;5043385;28;20470;-41
2023/03/28 01:21:19;;;;;;;16.70;2.40;;;1.70;99.90;;;;;;5054564;28;20040;-38
2023/03/28 01:24:05;;;;;;;17.13;3.00;;;1.90;99.90;;;;;;5032675;28;20549;-46
2023/03/28 01:26:44;;;;;;;11.27;2.35;;;1.90;99.90;;;;;;5019492;28;20059;-38
2023/03/28 01:29:33;;;;;;;14.90;2.72;;;2.00;99.90;;;;;;5020267;28;20156;-44
2023/03/28 01:32:33;;;;;;;14.20;2.33;;;2.10;99.90;;;;;;5027493;28;20045;-40
2023/03/28 01:35:22;;;;;;;12.38;1.90;;;2.20;99.90;;;;;;5020716;28;20585;-45
2023/03/28 01:38:12;;;;;;;25.45;3.00;;;2.20;99.90;;;;;;5027708;28;20590;-37
2023/03/28 01:40:47;;;;;;;10.65;2.38;;;2.30;99.90;;;;;;5025988;28;20095;-39
2023/03/28 01:43:18;;;;;;;9.65;2.63;;;2.30;99.90;;;;;;5022540;28;20045;-36
2023/03/28 01:45:53;;;;;;;10.85;2.13;;;2.30;99.90;;;;;;5029688;28;20053;-41
2023/03/28 01:48:31;;;;;;;15.13;2.33;;;2.30;99.90;;;;;;5021823;28;20067;-42
2023/03/28 01:51:23;;;;;;;19.10;3.03;;;2.30;99.90;;;;;;5026962;28;20419;-43
2023/03/28 01:54:07;;;;;;;14.73;2.17;;;2.20;99.90;;;;;;5013886;28;20053;-40
2023/03/28 01:56:47;;;;;;;9.35;2.45;;;2.10;99.90;;;;;;5031635;28;20051;-45
2023/03/28 01:59:19;;;;;;;15.07;2.70;;;2.10;99.90;;;;;;5039442;28;20080;-42
2023/03/28 02:01:53;;;;;;;10.95;2.25;;;2.00;99.90;;;;;;5041734;28;20061;-46
2023/03/28 02:04:21;;;;;;;10.77;2.78;;;2.00;99.90;;;;;;5054313;28;20158;-37
2023/03/28 02:06:49;;;;;;;18.67;2.92;;;1.90;99.90;;;;;;5051354;28;20648;-39
2023/03/28 02:09:17;;;;;;;9.15;2.92;;;1.90;99.90;;;;;;5054139;28;20052;-43
2023/03/28 02:11:47;;;;;;;12.07;2.35;;;1.80;99.90;;;;;;5054537;28;20162;-39
2023/03/28 02:14:22;;;;;;;15.10;2.72;;;1.80;99.90;;;;;;5053821;28;20504;-40
2023/03/28 02:16:53;;;;;;;11.30;2.35;;;1.70;99.90;;;;;;5054211;28;20437;-42
2023/03/28 02:19:23;;;;;;;8.15;2.10;;;1.70;99.90;;;;;;5055258;28;20044;-39
2023/03/28 02:22:09;;;;;;;14.05;2.30;;;1.60;99.90;;;;;;5054545;28;20052;-42
2023/03/28 02:24:35;;;;;;;9.82;2.50;;;1.60;99.90;;;;;;5037778;28;20059;-39
2023/03/28 02:27:01;;;;;;;12.88;2.30;;;1.50;99.90;;;;;;5058031;28;20048;-45
2023/03/28 02:29:27;;;;;;;11.23;2.50;;;1.40;99.90;;;;;;5058268;28;20043;-42
2023/03/28 02:31:53;;;;;;;16.85;2.92;;;1.40;99.90;;;;;;5057400;28;20073;-42
2023/03/28 02:34:18;;;;;;;10.85;2.20;;;1.30;99.90;;;;;;5056927;28;20079;-45
2023/03/28 02:37:16;;;;;;;10.20;1.98;;;1.30;99.90;;;;;;5058123;28;20382;-41
2023/03/28 02:39:56;;;;;;;14.55;2.65;;;1.30;99.90;;;;;;5034986;28;20049;-42
2023/03/28 02:43:09;;;;;;;9.38;2.05;;;1.30;99.90;;;;;;5033649;28;20060;-40
2023/03/28 02:45:35;;;;;;;11.85;3.97;;;1.30;99.90;;;;;;4963241;28;20531;-37
2023/03/28 02:48:21;;;;;;;8.55;2.50;;;1.20;99.90;;;;;;4976257;28;20561;-43
2023/03/28 02:51:22;;;;;;;16.23;2.83;;;1.20;99.90;;;;;;4972522;28;20053;-40
2023/03/28 02:54:01;;;;;;;13.88;2.97;;;1.20;99.90;;;;;;4958702;28;20050;-41
2023/03/28 02:56:49;;;;;;;13.73;3.13;;;1.20;99.90;;;;;;4975664;28;20066;-41
2023/03/28 02:59:19;;;;;;;13.10;2.88;;;1.20;99.90;;;;;;4976260;28;20050;-43
2023/03/28 03:01:45;;;;;;;16.95;3.15;;;1.20;99.90;;;;;;4959143;28;20591;-44
2023/03/28 03:04:12;;;;;;;13.65;3.88;;;1.10;99.90;;;;;;4960136;28;20047;-46
2023/03/28 03:06:38;;;;;;;11.05;3.33;;;1.10;99.90;;;;;;4975770;28;20544;-40
2023/03/28 03:09:04;;;;;;;9.98;3.38;;;1.10;99.90;;;;;;4975771;28;20097;-43
2023/03/28 03:11:30;;;;;;;14.40;3.53;;;1.10;99.90;;;;;;4975925;28;20289;-37
2023/03/28 03:13:58;;;;;;;15.65;3.85;;;1.10;99.90;;;;;;4995646;28;20042;-42
2023/03/28 03:16:24;;;;;;;15.98;3.83;;;1.10;99.90;;;;;;5013456;28;20060;-43
2023/03/28 03:18:50;;;;;;;22.05;4.30;;;1.20;99.90;;;;;;5014818;28;20041;-37
2023/03/28 03:21:16;;;;;;;21.23;3.13;;;1.20;99.90;;;;;;5023159;28;20057;-39
2023/03/28 03:23:42;;;;;;;16.95;4.45;;;1.40;99.90;;;;;;5058175;28;20056;-37
2023/03/28 03:26:08;;;;;;;18.27;3.25;;;1.40;99.90;;;;;;5057183;28;20041;-37
2023/03/28 03:28:33;;;;;;;17.23;3.28;;;1.50;99.90;;;;;;5057965;28;20094;-41
2023/03/28 03:30:59;;;;;;;17.05;2.97;;;1.50;99.90;;;;;;5057277;28;20133;-39
2023/03/28 03:33:25;;;;;;;20.95;4.38;;;1.50;99.90;;;;;;5057460;28;20048;-39
2023/03/28 03:35:52;;;;;;;12.15;2.78;;;1.50;99.90;;;;;;5055580;28;20603;-41
2023/03/28 03:38:18;;;;;;;9.55;2.80;;;1.50;99.90;;;;;;5056879;28;20497;-37
2023/03/28 03:40:44;;;;;;;15.82;2.60;;;1.50;99.90;;;;;;5054863;28;20131;-40
2023/03/28 03:43:10;;;;;;;15.10;3.65;;;1.50;99.90;;;;;;5046691;28;20051;-45
2023/03/28 03:45:36;;;;;;;11.38;2.40;;;1.50;99.90;;;;;;5056802;28;20507;-36
2023/03/28 03:48:02;;;;;;;14.65;2.90;;;1.50;99.90;;;;;;5056938;28;20127;-42
2023/03/28 03:50:28;;;;;;;15.07;3.00;;;1.40;99.90;;;;;;5055651;28;20425;-43
2023/03/28 03:52:54;;;;;;;15.30;2.80;;;1.30;99.90;;;;;;5047661;28;20052;-45
2023/03/28 03:55:19;;;;;;;12.93;2.78;;;1.30;99.90;;;;;;5050493;28;20037;-40
2023/03/28 03:57:45;;;;;;;9.48;2.53;;;1.30;99.90;;;;;;5056998;28;20044;-40
2023/03/28 04:00:11;;;;;;;13.52;3.20;;;1.20;99.90;;;;;;5056332;28;20403;-39
2023/03/28 04:02:38;;;;;;;16.17;3.22;;;1.20;99.90;;;;;;5053343;28;20541;-38
2023/03/28 04:05:06;;;;;;;15.80;3.83;;;1.20;99.90;;;;;;5053286;28;20106;-43
2023/03/28 04:07:32;;;;;;;19.10;3.97;;;1.20;99.90;;;;;;5055957;28;20390;-43
2023/03/28 04:09:58;;;;;;;17.38;5.28;;;1.20;99.90;;;;;;5055747;28;20052;-42
2023/03/28 04:12:24;;;;;;;25.95;8.00;;;1.20;99.90;;;;;;5057129;28;20048;-44
2023/03/28 04:14:49;;;;;;;21.52;5.75;;;1.20;99.90;;;;;;5056087;28;20043;-36
2023/03/28 04:17:15;;;;;;;15.70;4.55;;;1.20;99.90;;;;;;5056609;28;20117;-41
2023/03/28 04:19:42;;;;;;;15.25;3.90;;;1.20;99.90;;;;;;5056043;28;20636;-44
2023/03/28 04:22:11;;;;;;;20.20;4.60;;;1.20;99.90;;;;;;5056427;28;20145;-39
2023/03/28 04:24:40;;;;;;;16.13;3.85;;;1.10;99.90;;;;;;5056473;28;20417;-41
2023/03/28 04:27:08;;;;;;;14.73;3.38;;;1.10;99.90;;;;;;5056008;28;20048;-44
2023/03/28 04:29:34;;;;;;;15.13;3.20;;;1.00;99.90;;;;;;5055450;28;20059;-44
2023/03/28 04:32:01;;;;;;;14.18;3.50;;;1.00;99.90;;;;;;5056037;28;20443;-37
2023/03/28 04:34:29;;;;;;;11.45;2.80;;;1.00;99.90;;;;;;5055433;28;20629;-44
2023/03/28 04:37:04;;;;;;;13.63;3.42;;;0.90;99.90;;;;;;5055359;28;20387;-37
2023/03/28 04:39:36;;;;;;;15.73;3.05;;;0.90;99.90;;;;;;5054289;28;20052;-40
2023/03/28 04:42:04;;;;;;;11.50;3.33;;;0.80;99.90;;;;;;5056398;28;20080;-38
2023/03/28 04:44:30;;;;;;;14.93;3.05;;;0.80;99.90;;;;;;5042857;28;20426;-37
2023/03/28 04:46:57;;;;;;;14.00;3.00;;;0.80;99.90;;;;;;5056161;28;20048;-36
2023/03/28 04:49:23;;;;;;;12.13;3.28;;;0.80;99.90;;;;;;5054180;28;20437;-41
2023/03/28 04:51:51;;;;;;;12.93;2.95;;;0.80;99.90;;;;;;5056413;28;20501;-46
2023/03/28 04:54:17;;;;;;;15.38;3.13;;;0.80;99.90;;;;;;5056237;28;20080;-37
2023/03/28 04:56:44;;;;;;;11.68;2.78;;;0.80;99.90;;;;;;5055873;28;20406;-40
2023/03/28 04:59:14;;;;;;;10.02;1.92;;;0.70;99.90;;;;;;5054954;28;20052;-44
2023/03/28 05:01:40;;;;;;;13.85;2.80;;;0.70;99.90;;;;;;5055744;28;20044;-46
2023/03/28 05:04:06;;;;;;;11.48;2.72;;;0.70;99.90;;;;;;5056044;28;20040;-39
2023/03/28 05:06:32;;;;;;;13.13;2.42;;;0.70;99.90;;;;;;5055287;28;20121;-40
2023/03/28 05:08:58;;;;;;;13.40;2.50;;;0.80;99.90;;;;;;5048826;28;20502;-43
2023/03/28 05:11:24;;;;;;;17.80;2.60;;;0.70;99.90;;;;;;5048441;28;20139;-39
2023/03/28 05:13:50;;;;;;;12.90;2.22;;;0.80;99.90;;;;;;5055733;28;20436;-38
2023/03/28 05:16:16;;;;;;;13.65;2.65;;;0.80;99.90;;;;;;5054399;28;20044;-35
2023/03/28 05:18:41;;;;;;;15.88;3.10;;;0.90;99.90;;;;;;5042254;28;20052;-43
2023/03/28 05:21:07;;;;;;;11.25;2.95;;;0.80;99.90;;;;;;5053437;28;20052;-43
2023/03/28 05:23:33;;;;;;;15.30;3.55;;;0.90;99.90;;;;;;5054866;28;20044;-40
2023/03/28 05:25:58;;;;;;;15.45;3.85;;;0.90;99.90;;;;;;5054679;28;20079;-40
2023/03/28 05:28:24;;;;;;;15.98;3.92;;;1.00;99.90;;;;;;5055458;28;20053;-40
2023/03/28 05:30:50;;;;;;;15.25;3.50;;;1.00;99.90;;;;;;5040495;28;20048;-40
2023/03/28 05:33:16;;;;;;;16.92;3.85;;;1.10;99.90;;;;;;5048715;28;20622;-36
2023/03/28 05:35:42;;;;;;;11.13;3.40;;;1.20;99.90;;;;;;5041440;28;20424;-41
2023/03/28 05:38:07;;;;;;;15.65;3.80;;;1.40;99.90;;;;;;5047898;28;20454;-42
2023/03/28 05:40:33;;;;;;;19.27;4.22;;;1.50;99.90;;;;;;5048966;28;20065;-40
2023/03/28 05:42:59;;;;;;;11.05;4.20;;;1.70;99.90;;;;;;5055792;28;20378;-39
2023/03/28 05:45:25;;;;;;;19.83;4.53;;;1.90;99.90;;;;;;5054523;28;20037;-41
2023/03/28 05:47:53;;;;;;;11.95;4.43;;;2.20;99.90;;;;;;5054895;28;20048;-41
2023/03/28 05:50:19;;;;;;;12.85;4.30;;;2.50;99.90;;;;;;5054291;28;20045;-44
2023/03/28 05:52:45;;;;;;;12.90;3.83;;;2.80;99.90;;;;;;5055126;28;20051;-45
2023/03/28 05:55:10;;;;;;;13.82;3.90;;;3.00;99.90;;;;;;5053308;28;20715;-41
2023/03/28 05:57:36;;;;;;;10.65;2.78;;;3.20;99.90;;;;;;5056176;28;20689;-42
2023/03/28 06:00:13;;;;;;;13.57;2.78;;;3.50;99.90;;;;;;5055277;28;20045;-38
2023/03/28 06:02:39;;;;;;;11.35;2.75;;;3.70;99.90;;;;;;5059008;28;20044;-45
2023/03/28 06:05:06;;;;;;;11.23;2.75;;;3.80;99.90;;;;;;5054665;28;20032;-37
2023/03/28 06:07:32;;;;;;;12.55;2.90;;;3.90;99.90;;;;;;5057276;28;20161;-39
2023/03/28 06:10:00;;;;;;;13.15;3.33;;;3.80;99.90;;;;;;5053507;28;20443;-44
2023/03/28 06:12:26;;;;;;;8.23;2.50;;;3.70;99.90;;;;;;5058419;28;20491;-37
2023/03/28 06:14:51;;;;;;;11.77;3.60;;;3.50;99.90;;;;;;5054567;28;20040;-37
2023/03/28 06:17:17;;;;;;;9.20;2.42;;;3.40;99.90;;;;;;5057649;28;20040;-38
2023/03/28 06:19:43;;;;;;;10.95;3.58;;;3.40;99.90;;;;;;5056367;28;20044;-41
2023/03/28 06:22:08;;;;;;;13.98;3.00;;;3.40;99.90;;;;;;5048098;28;20051;-41
2023/03/28 06:24:34;;;;;;;12.10;3.78;;;3.30;99.90;;;;;;5057389;28;20053;-42
2023/03/28 06:27:00;;;;;;;9.55;3.40;;;3.30;99.90;;;;;;5058214;28;20185;-38
2023/03/28 06:29:25;;;;;;;13.63;4.60;;;3.30;99.90;;;;;;5057751;28;20055;-37
2023/03/28 06:31:51;;;;;;;12.68;3.85;;;3.40;99.90;;;;;;5058713;28;20041;-41
2023/03/28 06:34:17;;;;;;;12.32;4.22;;;3.40;99.90;;;;;;5056820;28;20071;-42
2023/03/28 06:36:43;;;;;;;14.02;4.10;;;3.50;99.90;;;;;;5058621;28;20435;-39
2023/03/28 06:39:09;;;;;;;10.25;3.08;;;3.50;99.90;;;;;;5057387;28;20078;-45
2023/03/28 06:41:35;;;;;;;9.00;2.20;;;3.60;99.90;;;;;;5049210;28;20083;-36
2023/03/28 06:44:01;;;;;;;12.52;2.65;;;3.60;99.90;;;;;;5054899;28;20116;-36
2023/03/28 06:46:27;;;;;;;9.65;2.13;;;3.80;99.90;;;;;;5057754;28;20426;-44
2023/03/28 06:48:52;;;;;;;6.75;2.13;;;3.90;99.90;;;;;;5055305;28;20048;-37
2023/03/28 06:51:18;;;;;;;7.18;1.83;;;3.90;99.90;;;;;;5054829;28;20056;-45
2023/03/28 06:53:44;;;;;;;6.70;1.92;;;4.10;99.90;;;;;;5037495;28;20049;-48
2023/03/28 06:56:10;;;;;;;6.63;1.98;;;4.10;99.90;;;;;;5049170;28;20481;-45
2023/03/28 06:58:36;;;;;;;9.93;2.30;;;4.10;99.90;;;;;;5053567;28;20048;-35
2023/03/28 07:01:02;;;;;;;12.50;2.75;;;4.30;99.90;;;;;;5057625;28;20044;-42
2023/03/28 07:03:28;;;;;;;9.23;2.50;;;4.70;99.90;;;;;;5058031;28;20365;-41
2023/03/28 07:05:55;;;;;;;6.32;1.88;;;5.30;99.90;;;;;;5048873;28;20080;-45
2023/03/28 07:08:20;;;;;;;8.40;2.20;;;5.50;99.90;;;;;;5052893;28;20052;-39
2023/03/28 07:10:46;;;;;;;8.52;2.53;;;5.70;99.90;;;;;;5057019;28;20651;-41
2023/03/28 07:13:12;;;;;;;9.70;3.13;;;5.80;99.90;;;;;;5056727;28;20044;-45
2023/03/28 07:15:38;;;;;;;15.65;3.42;;;6.20;99.90;;;;;;5056240;28;20515;-39
2023/03/28 07:18:09;;;;;;;8.85;2.78;;;6.60;99.90;;;;;;5057561;28;20483;-43
2023/03/28 07:20:38;;;;;;;14.10;3.80;;;7.00;99.90;;;;;;5039307;28;20064;-40
2023/03/28 07:23:04;;;;;;;8.02;2.60;;;7.20;99.90;;;;;;5057280;28;20044;-45
2023/03/28 07:25:31;;;;;;;12.57;2.80;;;7.40;99.90;;;;;;5056866;28;20071;-43
2023/03/28 07:27:56;;;;;;;10.98;3.10;;;7.60;99.90;;;;;;5057382;28;20049;-45
2023/03/28 07:30:22;;;;;;;9.27;3.20;;;7.90;99.90;;;;;;5056881;28;20055;-39
2023/03/28 07:32:48;;;;;;;10.55;2.30;;;8.00;99.90;;;;;;5050836;28;20096;-42
2023/03/28 07:35:13;;;;;;;9.85;2.28;;;8.10;99.90;;;;;;5056641;28;20507;-39
2023/03/28 07:37:39;;;;;;;8.13;2.30;;;8.10;99.90;;;;;;5053414;28;20496;-40
2023/03/28 07:40:06;;;;;;;9.65;2.10;;;8.10;99.90;;;;;;5047578;28;20045;-42
2023/03/28 07:42:31;;;;;;;9.13;2.38;;;8.10;99.90;;;;;;5056827;28;20052;-42
2023/03/28 07:44:57;;;;;;;8.88;2.90;;;8.20;99.90;;;;;;5056006;28;20041;-39
2023/03/28 07:47:23;;;;;;;7.50;2.30;;;8.40;99.90;;;;;;5055562;28;20060;-40
2023/03/28 07:49:48;;;;;;;8.27;2.25;;;8.50;99.90;;;;;;5055742;28;20044;-38
2023/03/28 07:52:14;;;;;;;8.65;3.38;;;8.70;99.90;;;;;;5056335;28;20052;-43
2023/03/28 07:54:40;;;;;;;11.40;3.20;;;8.70;99.90;;;;;;5056002;28;20045;-48
2023/03/28 07:57:06;;;;;;;10.10;2.97;;;8.50;99.90;;;;;;5057132;28;20564;-38
2023/03/28 07:59:32;;;;;;;8.07;3.15;;;8.40;99.90;;;;;;5034936;28;20596;-44
2023/03/28 08:01:58;;;;;;;9.57;2.88;;;8.20;99.90;;;;;;5052169;28;20311;-38
2023/03/28 08:04:24;;;;;;;8.73;2.72;;;8.20;99.90;;;;;;5056112;28;20516;-43
2023/03/28 08:06:51;;;;;;;9.40;2.72;;;8.10;99.90;;;;;;5054770;28;20057;-44
2023/03/28 08:09:18;;;;;;;14.15;3.80;;;8.20;99.90;;;;;;5052346;28;20070;-46
2023/03/28 08:11:44;;;;;;;8.25;2.38;;;8.20;99.90;;;;;;5051899;28;20434;-42
2023/03/28 08:14:15;;;;;;;7.97;2.40;;;8.30;99.90;;;;;;5041437;28;20389;-45
2023/03/28 08:16:42;;;;;;;8.40;2.78;;;8.30;99.90;;;;;;5038613;28;20334;-40
2023/03/28 08:19:08;;;;;;;9.90;3.25;;;8.50;99.90;;;;;;5039542;28;20348;-43
2023/03/28 08:21:34;;;;;;;8.68;3.35;;;8.50;99.90;;;;;;5036274;28;20245;-44
2023/03/28 08:24:01;;;;;;;5.82;2.22;;;8.50;99.90;;;;;;5036940;28;20211;-39
2023/03/28 08:26:27;;;;;;;6.28;1.42;;;8.40;99.90;;;;;;5034993;28;20041;-44
2023/03/28 08:28:57;;;;;;;10.88;2.08;;;8.30;99.90;;;;;;5042179;28;20083;-42
2023/03/28 08:31:25;;;;;;;7.50;2.20;;;8.40;99.90;;;;;;5041673;28;20081;-42
2023/03/28 08:33:52;;;;;;;6.07;1.25;;;8.50;99.90;;;;;;5040652;28;20044;-39
2023/03/28 08:36:19;;;;;;;5.60;1.55;;;8.40;99.90;;;;;;5033484;28;20116;-37
2023/03/28 08:38:46;;;;;;;8.55;2.03;;;8.30;99.90;;;;;;5044599;28;20500;-45
2023/03/28 08:41:41;;;;;;;7.28;1.17;;;8.10;99.90;;;;;;5051227;28;20244;-46
2023/03/28 08:44:25;;;;;;;6.07;1.25;;;8.20;99.90;;;;;;5037315;28;20191;-40
2023/03/28 08:46:56;;;;;;;4.18;1.10;;;8.30;99.90;;;;;;5040071;28;20047;-46
2023/03/28 08:49:22;;;;;;;3.63;1.60;;;8.10;99.90;;;;;;5041141;28;20405;-44
2023/03/28 08:51:54;;;;;;;4.82;1.17;;;7.80;99.90;;;;;;5038865;28;20045;-40
2023/03/28 08:54:30;;;;;;;4.22;1.27;;;7.90;99.90;;;;;;5054554;28;20047;-38
2023/03/28 08:56:58;;;;;;;7.40;1.23;;;7.90;99.90;;;;;;5054921;28;20044;-42
2023/03/28 08:59:42;;;;;;;3.95;1.67;;;7.70;99.90;;;;;;5054516;28;20032;-44
2023/03/28 09:02:27;;;;;;;4.07;0.95;;;7.60;99.90;;;;;;5043576;28;20044;-46
2023/03/28 09:04:54;;;;;;;4.40;1.30;;;7.50;99.90;;;;;;5054566;28;20041;-42
2023/03/28 09:07:39;;;;;;;6.07;1.85;;;7.40;99.90;;;;;;5054859;28;20044;-39
2023/03/28 09:10:10;;;;;;;8.98;1.80;;;7.60;99.90;;;;;;5053405;28;20064;-41
2023/03/28 09:12:44;;;;;;;4.10;1.63;;;7.70;99.90;;;;;;5054654;28;20040;-38
2023/03/28 09:15:19;;;;;;;7.22;1.80;;;7.60;99.90;;;;;;5054979;28;20386;-43
2023/03/28 09:17:54;;;;;;;4.53;1.40;;;7.70;99.90;;;;;;5054258;28;20079;-47
2023/03/28 09:20:24;;;;;;;7.00;1.67;;;7.70;99.90;;;;;;5042061;28;20458;-43
2023/03/28 09:23:10;;;;;;;4.47;1.90;;;7.70;99.90;;;;;;5054958;28;20127;-40
2023/03/28 09:25:56;;;;;;;3.80;1.90;;;7.80;99.90;;;;;;5055018;28;20036;-41
2023/03/28 09:28:33;;;;;;;6.88;2.17;;;7.80;99.90;;;;;;5055499;28;20048;-45
2023/03/28 09:30:59;;;;;;;8.30;2.40;;;7.90;99.90;;;;;;5055028;28;20416;-40
2023/03/28 09:33:41;;;;;;;11.80;3.70;;;7.90;99.90;;;;;;5055943;28;20435;-42
2023/03/28 09:36:14;;;;;;;11.95;3.40;;;7.90;99.90;;;;;;5048721;28;20363;-40
2023/03/28 09:38:46;;;;;;;8.85;2.92;;;7.90;99.90;;;;;;5056444;28;20036;-50
2023/03/28 09:41:23;;;;;;;5.40;2.33;;;8.10;99.90;;;;;;5047576;28;20106;-40
2023/03/28 09:43:55;;;;;;;8.88;3.10;;;8.20;99.90;;;;;;5049475;28;20076;-43
2023/03/28 09:46:32;;;;;;;8.30;3.00;;;8.40;99.90;;;;;;5040854;28;20087;-43
2023/03/28 09:48:58;;;;;;;7.53;2.85;;;8.50;99.90;;;;;;5052008;28;20045;-37
2023/03/28 09:51:24;;;;;;;5.60;3.28;;;8.60;99.90;;;;;;5054891;28;20098;-40
2023/03/28 09:53:50;;;;;;;8.95;2.83;;;8.60;99.90;;;;;;5054512;28;20044;-45
2023/03/28 09:56:31;;;;;;;6.75;2.30;;;8.60;99.90;;;;;;5054504;28;20044;-41
2023/03/28 09:59:00;;;;;;;5.57;2.75;;;8.60;99.90;;;;;;5035503;28;20468;-46
2023/03/28 10:01:48;;;;;;;6.53;2.60;;;8.40;99.90;;;;;;5047277;28;20107;-46
2023/03/28 10:04:16;;;;;;;8.30;2.70;;;8.40;99.90;;;;;;5055208;28;20673;-44
2023/03/28 10:06:43;;;;;;;6.85;2.42;;;8.40;99.90;;;;;;5054495;28;20059;-44
2023/03/28 10:09:12;;;;;;;7.57;2.30;;;8.40;99.90;;;;;;5055109;28;20051;-48
2023/03/28 10:11:56;;;;;;;5.45;2.50;;;8.50;99.90;;;;;;5053633;28;20128;-36
2023/03/28 10:14:31;;;;;;;6.97;2.70;;;8.50;99.90;;;;;;5053347;28;20045;-45
2023/03/28 10:17:17;;;;;;;6.32;2.67;;;8.50;99.90;;;;;;5050954;28;20094;-41
2023/03/28 10:19:45;;;;;;;7.15;2.63;;;8.30;99.90;;;;;;5041077;28;20049;-42
2023/03/28 10:22:24;;;;;;;5.70;2.70;;;8.50;99.90;;;;;;5055487;28;20059;-45
2023/03/28 10:24:50;;;;;;;5.60;2.60;;;8.70;99.90;;;;;;5054377;28;20051;-40
2023/03/28 10:27:22;;;;;;;6.38;2.85;;;8.80;99.90;;;;;;5054962;28;20040;-38
2023/03/28 10:29:51;;;;;;;6.45;2.45;;;8.90;99.90;;;;;;5054484;28;20044;-43
2023/03/28 10:32:35;;;;;;;5.65;2.65;;;9.00;99.90;;;;;;5053647;28;20048;-42
2023/03/28 10:35:24;;;;;;;4.93;2.20;;;9.30;99.90;;;;;;5053770;28;20086;-36
2023/03/28 10:37:54;;;;;;;9.32;3.13;;;9.40;99.90;;;;;;5051456;28;20041;-38
2023/03/28 10:40:22;;;;;;;5.72;3.00;;;9.10;99.90;;;;;;5053455;28;20315;-47
2023/03/28 10:42:51;;;;;;;8.13;2.70;;;9.40;99.90;;;;;;5052810;28;20037;-44
2023/03/28 10:45:37;;;;;;;9.05;3.33;;;9.40;99.90;;;;;;5052032;28;20032;-47
2023/03/28 10:48:15;;;;;;;6.43;3.10;;;9.20;99.90;;;;;;5044510;28;20045;-46
2023/03/28 10:50:47;;;;;;;6.72;3.50;;;9.00;99.90;;;;;;5057438;28;20037;-43
2023/03/28 10:53:21;;;;;;;8.60;3.08;;;8.90;99.90;;;;;;5055460;28;20666;-39
2023/03/28 10:56:23;;;;;;;7.78;3.38;;;8.70;99.90;;;;;;5056319;28;20039;-44
2023/03/28 10:59:26;;;;;;;9.63;2.92;;;8.60;99.90;;;;;;5056214;28;20040;-39
2023/03/28 11:02:30;;;;;;;8.52;3.20;;;8.80;99.90;;;;;;5054417;28;20040;-43
2023/03/28 11:05:02;;;;;;;6.77;2.93;;;8.80;99.90;;;;;;5056163;28;20041;-45
2023/03/28 11:07:36;;;;;;;7.47;3.50;;;8.80;99.90;;;;;;5056971;28;20119;-46
2023/03/28 11:10:37;;;;;;;9.52;3.28;;;8.60;99.90;;;;;;5044665;28;20060;-44
2023/03/28 11:13:23;;;;;;;8.60;3.22;;;8.70;99.90;;;;;;5054500;28;20044;-43
2023/03/28 11:15:55;;;;;;;9.65;3.10;;;8.70;99.90;;;;;;5055819;28;20032;-43
2023/03/28 11:18:36;;;;;;;9.07;3.13;;;8.70;99.90;;;;;;5056918;28;20453;-40
2023/03/28 11:21:07;;;;;;;6.30;3.20;;;8.60;99.90;;;;;;5056633;28;20120;-46
2023/03/28 11:23:44;;;;;;;8.35;3.70;;;8.70;99.90;;;;;;5053297;28;20045;-43
2023/03/28 11:26:32;;;;;;;7.35;3.25;;;8.80;99.90;;;;;;5052084;28;20124;-46
2023/03/28 11:29:20;;;;;;;7.25;3.67;;;8.80;99.90;;;;;;5044221;28;20080;-42
2023/03/28 11:31:55;;;;;;;8.32;3.67;;;8.90;99.90;;;;;;5046215;28;20102;-44
2023/03/28 11:34:46;;;;;;;7.53;3.72;;;8.80;99.90;;;;;;5053889;28;20052;-38
2023/03/28 11:37:38;;;;;;;10.07;4.00;;;8.90;99.90;;;;;;5050189;28;20044;-47
2023/03/28 11:40:22;;;;;;;7.90;3.83;;;9.10;99.90;;;;;;5047858;28;20051;-40
2023/03/28 11:42:55;;;;;;;6.45;3.50;;;9.20;99.90;;;;;;5055764;28;20087;-46
2023/03/28 11:45:29;;;;;;;6.63;3.40;;;9.20;99.90;;;;;;5056230;28;20060;-43
2023/03/28 11:48:32;;;;;;;5.93;3.60;;;9.10;99.90;;;;;;5042223;28;20495;-41
2023/03/28 11:51:12;;;;;;;9.00;4.05;;;9.20;99.90;;;;;;5047058;28;20053;-43
2023/03/28 11:53:43;;;;;;;7.50;4.00;;;9.10;99.90;;;;;;5056730;28;20057;-43
2023/03/28 11:56:20;;;;;;;11.88;4.57;;;9.30;99.90;;;;;;5056162;28;20036;-42
2023/03/28 11:58:52;;;;;;;9.15;4.15;;;9.20;99.90;;;;;;5051923;28;20498;-43
2023/03/28 12:01:22;;;;;;;7.57;3.93;;;9.20;99.90;;;;;;5057407;28;20118;-39
2023/03/28 12:04:00;;;;;;;7.78;3.60;;;9.20;99.90;;;;;;5056400;28;20382;-44
2023/03/28 12:06:40;;;;;;;7.63;3.13;;;9.30;99.90;;;;;;5056237;28;20041;-36
2023/03/28 12:09:35;;;;;;;4.43;3.00;;;9.20;99.90;;;;;;5055821;28;20052;-36
2023/03/28 12:12:12;;;;;;;8.40;3.75;;;9.20;99.90;;;;;;5051920;28;20476;-39
2023/03/28 12:14:56;;;;;;;9.68;3.35;;;9.10;99.90;;;;;;5050089;28;20105;-49
2023/03/28 12:17:27;;;;;;;11.45;4.10;;;9.20;99.90;;;;;;5057147;28;20125;-36
2023/03/28 12:19:52;;;;;;;7.95;3.88;;;9.30;99.90;;;;;;5054844;28;20083;-47
2023/03/28 12:22:25;;;;;;;8.88;3.75;;;9.20;99.90;;;;;;5055169;28;20044;-45
2023/03/28 12:25:27;;;;;;;8.40;4.00;;;9.20;99.90;;;;;;5055626;28;20090;-40
2023/03/28 12:28:20;;;;;;;8.77;4.00;;;9.00;99.90;;;;;;5033000;28;20155;-46
2023/03/28 12:30:52;;;;;;;6.28;3.90;;;9.10;99.90;;;;;;5033041;28;20041;-37
2023/03/28 12:33:31;;;;;;;8.00;3.70;;;9.00;99.90;;;;;;5018015;28;20049;-42
2023/03/28 12:36:09;;;;;;;6.10;3.55;;;9.00;99.90;;;;;;5028454;28;20037;-36
2023/03/28 12:38:44;;;;;;;7.68;3.47;;;8.90;99.90;;;;;;5016402;28;20482;-44
2023/03/28 12:41:16;;;;;;;6.32;4.18;;;8.90;99.90;;;;;;5011483;28;20044;-46
2023/03/28 12:43:52;;;;;;;7.97;4.43;;;8.80;99.90;;;;;;5031998;28;20207;-42
2023/03/28 12:46:26;;;;;;;7.20;3.58;;;8.90;99.90;;;;;;5013917;28;20081;-44
2023/03/28 12:48:59;;;;;;;7.55;3.90;;;8.70;99.90;;;;;;5030489;28;20076;-41
2023/03/28 12:51:40;;;;;;;9.55;3.17;;;8.80;99.90;;;;;;5014788;28;20106;-43
2023/03/28 12:54:21;;;;;;;6.40;3.45;;;8.70;99.90;;;;;;5028130;28;20352;-38
2023/03/28 12:57:21;;;;;;;7.70;3.97;;;8.70;99.90;;;;;;5026622;28;20041;-37
2023/03/28 12:59:53;;;;;;;7.80;3.47;;;8.80;99.90;;;;;;5019502;28;20045;-37
2023/03/28 13:02:32;;;;;;;5.15;3.50;;;8.80;99.90;;;;;;5017747;28;20079;-41
2023/03/28 13:05:21;;;;;;;9.68;3.42;;;8.80;99.90;;;;;;5033826;28;20466;-44
2023/03/28 13:08:16;;;;;;;7.25;4.43;;;8.90;99.90;;;;;;5055938;28;20453;-43
2023/03/28 13:10:57;;;;;;;8.48;3.75;;;8.80;99.90;;;;;;5055459;28;20048;-39
2023/03/28 13:13:29;;;;;;;6.07;3.67;;;8.90;99.90;;;;;;5042396;28;20048;-41
2023/03/28 13:16:01;;;;;;;7.88;3.17;;;9.00;99.90;;;;;;5050324;28;20063;-45
2023/03/28 13:18:32;;;;;;;8.33;3.87;;;9.00;99.90;;;;;;5040955;28;20071;-49